sensor_id;sensor_type;location;lat;lon;timestamp;P1;durP1;ratioP1;P2;durP2;ratioP2
6378;SDS011;3222;48.858;10.128;2023-04-03T00:01:12;5.43;;;3.47;;
6378;SDS011;3222;48.858;10.128;2023-04-03T00:03:37;5.40;;;3.67;;
6378;SDS011;3222;48.858;10.128;2023-04-03T00:06:03;5.13;;;3.27;;
6378;SDS011;3222;48.858;10.128;2023-04-03T00:08:31;3.63;;;3.20;;
6378;SDS011;3222;48.858;10.128;2023-04-03T00:10:57;3.53;;;3.10;;
6378;SDS011;3222;48.858;10.128;2023-04-03T00:13:23;3.53;;;3.23;;
6378;SDS011;3222;48.858;10.128;2023-04-03T00:15:50;7.30;;;3.27;;
6378;SDS011;3222;48.858;10.128;2023-04-03T00:18:16;3.73;;;3.40;;
6378;SDS011;3222;48.858;10.128;2023-04-03T00:20:42;3.50;;;3.20;;
6378;SDS011;3222;48.858;10.128;2023-04-03T00:23:08;5.70;;;3.20;;
6378;SDS011;3222;48.858;10.128;2023-04-03T00:25:33;5.30;;;3.10;;
6378;SDS011;3222;48.858;10.128;2023-04-03T00:28:00;3.93;;;3.10;;
6378;SDS011;3222;48.858;10.128;2023-04-03T00:30:26;6.70;;;3.10;;
6378;SDS011;3222;48.858;10.128;2023-04-03T00:32:52;4.53;;;3.13;;
6378;SDS011;3222;48.858;10.128;2023-04-03T00:35:19;3.80;;;3.10;;
6378;SDS011;3222;48.858;10.128;2023-04-03T00:37:46;2.97;;;2.77;;
6378;SDS011;3222;48.858;10.128;2023-04-03T00:40:12;9.63;;;3.20;;
6378;SDS011;3222;48.858;10.128;2023-04-03T00:42:40;6.90;;;3.73;;
6378;SDS011;3222;48.858;10.128;2023-04-03T00:47:36;4.83;;;3.03;;
6378;SDS011;3222;48.858;10.128;2023-04-03T00:50:02;6.37;;;3.10;;
6378;SDS011;3222;48.858;10.128;2023-04-03T00:52:29;3.83;;;2.80;;
6378;SDS011;3222;48.858;10.128;2023-04-03T00:55:00;7.60;;;3.00;;
6378;SDS011;3222;48.858;10.128;2023-04-03T00:57:30;5.43;;;3.00;;
6378;SDS011;3222;48.858;10.128;2023-04-03T01:00:02;5.53;;;3.17;;
6378;SDS011;3222;48.858;10.128;2023-04-03T01:02:34;3.87;;;3.07;;
6378;SDS011;3222;48.858;10.128;2023-04-03T01:05:00;6.53;;;2.83;;
6378;SDS011;3222;48.858;10.128;2023-04-03T01:07:27;3.10;;;2.80;;
6378;SDS011;3222;48.858;10.128;2023-04-03T01:09:56;4.83;;;3.07;;
6378;SDS011;3222;48.858;10.128;2023-04-03T01:12:27;4.33;;;3.00;;
6378;SDS011;3222;48.858;10.128;2023-04-03T01:14:56;4.43;;;2.90;;
6378;SDS011;3222;48.858;10.128;2023-04-03T01:25:46;4.07;;;3.00;;
6378;SDS011;3222;48.858;10.128;2023-04-03T01:28:15;3.67;;;2.83;;
6378;SDS011;3222;48.858;10.128;2023-04-03T01:33:49;5.03;;;2.80;;
6378;SDS011;3222;48.858;10.128;2023-04-03T01:36:20;3.10;;;2.90;;
6378;SDS011;3222;48.858;10.128;2023-04-03T01:38:51;3.03;;;2.70;;
6378;SDS011;3222;48.858;10.128;2023-04-03T01:41:18;4.13;;;2.90;;
6378;SDS011;3222;48.858;10.128;2023-04-03T01:43:45;4.67;;;2.90;;
6378;SDS011;3222;48.858;10.128;2023-04-03T01:46:11;4.57;;;2.73;;
6378;SDS011;3222;48.858;10.128;2023-04-03T01:48:37;4.57;;;2.60;;
6378;SDS011;3222;48.858;10.128;2023-04-03T01:51:03;4.23;;;2.73;;
6378;SDS011;3222;48.858;10.128;2023-04-03T01:53:28;3.67;;;2.80;;
6378;SDS011;3222;48.858;10.128;2023-04-03T01:55:54;3.93;;;2.87;;
6378;SDS011;3222;48.858;10.128;2023-04-03T01:58:20;3.13;;;2.80;;
6378;SDS011;3222;48.858;10.128;2023-04-03T02:00:47;3.03;;;2.77;;
6378;SDS011;3222;48.858;10.128;2023-04-03T02:03:13;2.93;;;2.73;;
6378;SDS011;3222;48.858;10.128;2023-04-03T02:05:40;3.70;;;2.90;;
6378;SDS011;3222;48.858;10.128;2023-04-03T02:08:05;4.10;;;2.97;;
6378;SDS011;3222;48.858;10.128;2023-04-03T02:10:31;3.83;;;2.90;;
6378;SDS011;3222;48.858;10.128;2023-04-03T02:12:57;4.20;;;3.00;;
6378;SDS011;3222;48.858;10.128;2023-04-03T02:15:24;6.40;;;3.10;;
6378;SDS011;3222;48.858;10.128;2023-04-03T02:17:49;3.80;;;3.10;;
6378;SDS011;3222;48.858;10.128;2023-04-03T02:20:15;6.23;;;2.87;;
6378;SDS011;3222;48.858;10.128;2023-04-03T02:22:41;2.67;;;2.47;;
6378;SDS011;3222;48.858;10.128;2023-04-03T02:25:06;3.57;;;3.23;;
6378;SDS011;3222;48.858;10.128;2023-04-03T02:27:33;3.63;;;3.33;;
6378;SDS011;3222;48.858;10.128;2023-04-03T02:29:58;6.07;;;3.03;;
6378;SDS011;3222;48.858;10.128;2023-04-03T02:32:24;3.10;;;2.90;;
6378;SDS011;3222;48.858;10.128;2023-04-03T02:34:50;2.93;;;2.73;;
6378;SDS011;3222;48.858;10.128;2023-04-03T02:37:16;3.17;;;2.87;;
6378;SDS011;3222;48.858;10.128;2023-04-03T02:39:44;3.57;;;2.90;;
6378;SDS011;3222;48.858;10.128;2023-04-03T02:42:10;2.97;;;2.80;;
6378;SDS011;3222;48.858;10.128;2023-04-03T02:44:36;2.97;;;2.77;;
6378;SDS011;3222;48.858;10.128;2023-04-03T02:47:01;3.10;;;2.70;;
6378;SDS011;3222;48.858;10.128;2023-04-03T02:49:27;6.27;;;3.03;;
6378;SDS011;3222;48.858;10.128;2023-04-03T02:51:53;3.10;;;2.70;;
6378;SDS011;3222;48.858;10.128;2023-04-03T02:54:19;6.33;;;3.23;;
6378;SDS011;3222;48.858;10.128;2023-04-03T02:56:49;4.67;;;2.87;;
6378;SDS011;3222;48.858;10.128;2023-04-03T02:59:16;3.73;;;3.20;;
6378;SDS011;3222;48.858;10.128;2023-04-03T03:01:42;3.40;;;2.90;;
6378;SDS011;3222;48.858;10.128;2023-04-03T03:04:08;2.80;;;2.60;;
6378;SDS011;3222;48.858;10.128;2023-04-03T03:06:33;3.77;;;2.67;;
6378;SDS011;3222;48.858;10.128;2023-04-03T03:08:59;3.37;;;2.87;;
6378;SDS011;3222;48.858;10.128;2023-04-03T03:11:25;3.80;;;2.93;;
6378;SDS011;3222;48.858;10.128;2023-04-03T03:13:51;2.73;;;2.53;;
6378;SDS011;3222;48.858;10.128;2023-04-03T03:16:17;5.67;;;2.70;;
6378;SDS011;3222;48.858;10.128;2023-04-03T03:18:43;3.40;;;3.10;;
6378;SDS011;3222;48.858;10.128;2023-04-03T03:21:09;5.13;;;3.00;;
6378;SDS011;3222;48.858;10.128;2023-04-03T03:23:35;3.17;;;2.87;;
6378;SDS011;3222;48.858;10.128;2023-04-03T03:26:02;4.03;;;3.00;;
6378;SDS011;3222;48.858;10.128;2023-04-03T03:28:30;4.37;;;3.17;;
6378;SDS011;3222;48.858;10.128;2023-04-03T03:30:57;4.13;;;3.10;;
6378;SDS011;3222;48.858;10.128;2023-04-03T03:33:24;5.23;;;3.30;;
6378;SDS011;3222;48.858;10.128;2023-04-03T03:35:50;6.07;;;4.10;;
6378;SDS011;3222;48.858;10.128;2023-04-03T03:38:16;4.83;;;4.17;;
6378;SDS011;3222;48.858;10.128;2023-04-03T03:40:42;4.30;;;3.67;;
6378;SDS011;3222;48.858;10.128;2023-04-03T03:43:08;3.80;;;3.50;;
6378;SDS011;3222;48.858;10.128;2023-04-03T03:45:34;4.47;;;3.20;;
6378;SDS011;3222;48.858;10.128;2023-04-03T03:48:00;3.80;;;2.70;;
6378;SDS011;3222;48.858;10.128;2023-04-03T03:50:26;4.33;;;2.60;;
6378;SDS011;3222;48.858;10.128;2023-04-03T03:52:52;3.97;;;2.77;;
6378;SDS011;3222;48.858;10.128;2023-04-03T03:55:18;2.80;;;2.60;;
6378;SDS011;3222;48.858;10.128;2023-04-03T03:57:48;2.53;;;2.33;;
6378;SDS011;3222;48.858;10.128;2023-04-03T04:00:14;2.73;;;2.53;;
6378;SDS011;3222;48.858;10.128;2023-04-03T04:02:48;4.70;;;2.43;;
6378;SDS011;3222;48.858;10.128;2023-04-03T04:05:17;2.97;;;2.70;;
6378;SDS011;3222;48.858;10.128;2023-04-03T04:07:43;3.60;;;2.57;;
6378;SDS011;3222;48.858;10.128;2023-04-03T04:10:10;2.63;;;2.47;;
6378;SDS011;3222;48.858;10.128;2023-04-03T04:12:36;2.93;;;2.63;;
6378;SDS011;3222;48.858;10.128;2023-04-03T04:15:02;3.00;;;2.67;;
6378;SDS011;3222;48.858;10.128;2023-04-03T04:17:28;2.73;;;2.53;;
6378;SDS011;3222;48.858;10.128;2023-04-03T04:19:55;3.17;;;2.77;;
6378;SDS011;3222;48.858;10.128;2023-04-03T04:22:21;4.57;;;2.87;;
6378;SDS011;3222;48.858;10.128;2023-04-03T04:24:46;3.77;;;2.50;;
6378;SDS011;3222;48.858;10.128;2023-04-03T04:27:12;2.97;;;2.60;;
6378;SDS011;3222;48.858;10.128;2023-04-03T04:29:38;2.60;;;2.40;;
6378;SDS011;3222;48.858;10.128;2023-04-03T04:32:06;3.87;;;2.90;;
6378;SDS011;3222;48.858;10.128;2023-04-03T04:34:31;4.77;;;3.00;;
6378;SDS011;3222;48.858;10.128;2023-04-03T04:36:58;3.27;;;2.70;;
6378;SDS011;3222;48.858;10.128;2023-04-03T04:39:25;5.27;;;2.50;;
6378;SDS011;3222;48.858;10.128;2023-04-03T04:41:54;4.37;;;2.90;;
6378;SDS011;3222;48.858;10.128;2023-04-03T04:44:20;3.03;;;2.63;;
6378;SDS011;3222;48.858;10.128;2023-04-03T04:46:45;5.20;;;2.20;;
6378;SDS011;3222;48.858;10.128;2023-04-03T04:49:11;2.77;;;2.57;;
6378;SDS011;3222;48.858;10.128;2023-04-03T04:51:37;2.83;;;2.63;;
6378;SDS011;3222;48.858;10.128;2023-04-03T04:54:02;3.07;;;2.73;;
6378;SDS011;3222;48.858;10.128;2023-04-03T04:56:28;4.57;;;2.43;;
6378;SDS011;3222;48.858;10.128;2023-04-03T04:58:55;2.57;;;2.37;;
6378;SDS011;3222;48.858;10.128;2023-04-03T05:01:22;5.07;;;2.67;;
6378;SDS011;3222;48.858;10.128;2023-04-03T05:04:00;4.63;;;2.57;;
6378;SDS011;3222;48.858;10.128;2023-04-03T05:06:26;2.50;;;2.30;;
6378;SDS011;3222;48.858;10.128;2023-04-03T05:08:53;6.50;;;2.77;;
6378;SDS011;3222;48.858;10.128;2023-04-03T05:11:20;3.70;;;2.70;;
6378;SDS011;3222;48.858;10.128;2023-04-03T05:13:49;2.83;;;2.50;;
6378;SDS011;3222;48.858;10.128;2023-04-03T05:16:15;2.60;;;2.40;;
6378;SDS011;3222;48.858;10.128;2023-04-03T05:18:41;3.20;;;2.50;;
6378;SDS011;3222;48.858;10.128;2023-04-03T05:21:11;2.70;;;2.33;;
6378;SDS011;3222;48.858;10.128;2023-04-03T05:23:37;5.83;;;2.97;;
6378;SDS011;3222;48.858;10.128;2023-04-03T05:26:03;3.53;;;2.30;;
6378;SDS011;3222;48.858;10.128;2023-04-03T05:28:29;7.97;;;2.60;;
6378;SDS011;3222;48.858;10.128;2023-04-03T05:30:56;3.73;;;2.40;;
6378;SDS011;3222;48.858;10.128;2023-04-03T05:33:26;2.93;;;2.07;;
6378;SDS011;3222;48.858;10.128;2023-04-03T05:35:54;2.30;;;2.10;;
6378;SDS011;3222;48.858;10.128;2023-04-03T05:38:25;2.43;;;2.27;;
6378;SDS011;3222;48.858;10.128;2023-04-03T05:40:51;2.97;;;2.37;;
6378;SDS011;3222;48.858;10.128;2023-04-03T05:43:17;2.83;;;2.47;;
6378;SDS011;3222;48.858;10.128;2023-04-03T05:45:43;3.93;;;2.30;;
6378;SDS011;3222;48.858;10.128;2023-04-03T05:48:09;3.73;;;2.50;;
6378;SDS011;3222;48.858;10.128;2023-04-03T05:50:36;4.80;;;2.53;;
6378;SDS011;3222;48.858;10.128;2023-04-03T05:53:06;3.17;;;2.40;;
6378;SDS011;3222;48.858;10.128;2023-04-03T05:55:36;2.60;;;2.40;;
6378;SDS011;3222;48.858;10.128;2023-04-03T05:58:01;2.60;;;2.40;;
6378;SDS011;3222;48.858;10.128;2023-04-03T06:00:27;4.40;;;2.73;;
6378;SDS011;3222;48.858;10.128;2023-04-03T06:02:59;4.87;;;2.57;;
6378;SDS011;3222;48.858;10.128;2023-04-03T06:05:25;4.60;;;2.70;;
6378;SDS011;3222;48.858;10.128;2023-04-03T06:07:50;2.47;;;2.27;;
6378;SDS011;3222;48.858;10.128;2023-04-03T06:10:16;3.63;;;3.33;;
6378;SDS011;3222;48.858;10.128;2023-04-03T06:12:43;2.60;;;2.40;;
6378;SDS011;3222;48.858;10.128;2023-04-03T06:15:09;3.00;;;2.70;;
6378;SDS011;3222;48.858;10.128;2023-04-03T06:17:38;3.07;;;2.57;;
6378;SDS011;3222;48.858;10.128;2023-04-03T06:20:04;4.30;;;2.43;;
6378;SDS011;3222;48.858;10.128;2023-04-03T06:22:30;2.63;;;2.43;;
6378;SDS011;3222;48.858;10.128;2023-04-03T06:24:56;2.67;;;2.47;;
6378;SDS011;3222;48.858;10.128;2023-04-03T06:27:23;3.40;;;2.50;;
6378;SDS011;3222;48.858;10.128;2023-04-03T06:29:49;2.50;;;2.40;;
6378;SDS011;3222;48.858;10.128;2023-04-03T06:32:15;2.80;;;2.60;;
6378;SDS011;3222;48.858;10.128;2023-04-03T06:34:41;3.13;;;2.60;;
6378;SDS011;3222;48.858;10.128;2023-04-03T06:37:25;3.40;;;2.83;;
6378;SDS011;3222;48.858;10.128;2023-04-03T06:39:51;4.43;;;2.70;;
6378;SDS011;3222;48.858;10.128;2023-04-03T06:42:17;4.23;;;3.07;;
6378;SDS011;3222;48.858;10.128;2023-04-03T06:44:53;4.80;;;3.00;;
6378;SDS011;3222;48.858;10.128;2023-04-03T06:47:19;3.87;;;3.03;;
6378;SDS011;3222;48.858;10.128;2023-04-03T06:49:44;3.83;;;2.97;;
6378;SDS011;3222;48.858;10.128;2023-04-03T06:52:10;3.23;;;3.00;;
6378;SDS011;3222;48.858;10.128;2023-04-03T06:54:37;6.73;;;2.83;;
6378;SDS011;3222;48.858;10.128;2023-04-03T06:57:03;5.37;;;3.40;;
6378;SDS011;3222;48.858;10.128;2023-04-03T06:59:29;3.67;;;2.63;;
6378;SDS011;3222;48.858;10.128;2023-04-03T07:01:55;4.13;;;3.07;;
6378;SDS011;3222;48.858;10.128;2023-04-03T07:04:21;3.20;;;2.90;;
6378;SDS011;3222;48.858;10.128;2023-04-03T07:06:47;2.93;;;2.73;;
6378;SDS011;3222;48.858;10.128;2023-04-03T07:09:13;3.87;;;2.90;;
6378;SDS011;3222;48.858;10.128;2023-04-03T07:11:40;4.03;;;2.80;;
6378;SDS011;3222;48.858;10.128;2023-04-03T07:14:06;2.90;;;2.70;;
6378;SDS011;3222;48.858;10.128;2023-04-03T07:16:33;3.03;;;2.83;;
6378;SDS011;3222;48.858;10.128;2023-04-03T07:18:59;3.23;;;2.87;;
6378;SDS011;3222;48.858;10.128;2023-04-03T07:21:26;3.77;;;3.07;;
6378;SDS011;3222;48.858;10.128;2023-04-03T07:23:52;3.50;;;2.97;;
6378;SDS011;3222;48.858;10.128;2023-04-03T07:26:19;5.67;;;3.10;;
6378;SDS011;3222;48.858;10.128;2023-04-03T07:28:46;3.00;;;2.80;;
6378;SDS011;3222;48.858;10.128;2023-04-03T07:31:13;5.90;;;3.23;;
6378;SDS011;3222;48.858;10.128;2023-04-03T07:33:40;8.07;;;3.33;;
6378;SDS011;3222;48.858;10.128;2023-04-03T07:36:07;4.30;;;2.77;;
6378;SDS011;3222;48.858;10.128;2023-04-03T07:38:35;3.50;;;3.20;;
6378;SDS011;3222;48.858;10.128;2023-04-03T07:41:01;3.73;;;3.00;;
6378;SDS011;3222;48.858;10.128;2023-04-03T07:43:27;3.70;;;2.87;;
6378;SDS011;3222;48.858;10.128;2023-04-03T07:45:52;4.57;;;3.07;;
6378;SDS011;3222;48.858;10.128;2023-04-03T07:48:23;5.07;;;3.23;;
6378;SDS011;3222;48.858;10.128;2023-04-03T07:50:50;5.80;;;2.97;;
6378;SDS011;3222;48.858;10.128;2023-04-03T07:53:16;5.40;;;3.57;;
6378;SDS011;3222;48.858;10.128;2023-04-03T07:55:42;3.30;;;3.03;;
6378;SDS011;3222;48.858;10.128;2023-04-03T07:58:11;4.33;;;3.20;;
6378;SDS011;3222;48.858;10.128;2023-04-03T08:00:39;6.40;;;3.23;;
6378;SDS011;3222;48.858;10.128;2023-04-03T08:03:06;4.80;;;3.23;;
6378;SDS011;3222;48.858;10.128;2023-04-03T08:05:36;3.60;;;3.30;;
6378;SDS011;3222;48.858;10.128;2023-04-03T08:08:02;3.70;;;3.30;;
6378;SDS011;3222;48.858;10.128;2023-04-03T08:10:29;5.40;;;3.03;;
6378;SDS011;3222;48.858;10.128;2023-04-03T08:12:55;4.70;;;3.27;;
6378;SDS011;3222;48.858;10.128;2023-04-03T08:15:21;6.27;;;3.07;;
6378;SDS011;3222;48.858;10.128;2023-04-03T08:17:47;5.67;;;3.70;;
6378;SDS011;3222;48.858;10.128;2023-04-03T08:20:13;4.47;;;3.10;;
6378;SDS011;3222;48.858;10.128;2023-04-03T08:22:38;7.27;;;3.03;;
6378;SDS011;3222;48.858;10.128;2023-04-03T08:25:04;5.07;;;3.23;;
6378;SDS011;3222;48.858;10.128;2023-04-03T08:27:30;4.20;;;3.10;;
6378;SDS011;3222;48.858;10.128;2023-04-03T08:29:56;6.53;;;3.40;;
6378;SDS011;3222;48.858;10.128;2023-04-03T08:32:22;7.00;;;3.50;;
6378;SDS011;3222;48.858;10.128;2023-04-03T08:34:48;3.83;;;3.07;;
6378;SDS011;3222;48.858;10.128;2023-04-03T08:37:13;4.77;;;3.70;;
6378;SDS011;3222;48.858;10.128;2023-04-03T08:39:41;5.97;;;3.43;;
6378;SDS011;3222;48.858;10.128;2023-04-03T08:42:15;4.00;;;3.17;;
6378;SDS011;3222;48.858;10.128;2023-04-03T08:45:08;3.40;;;3.00;;
6378;SDS011;3222;48.858;10.128;2023-04-03T08:47:39;4.53;;;3.03;;
6378;SDS011;3222;48.858;10.128;2023-04-03T08:50:22;4.17;;;3.37;;
6378;SDS011;3222;48.858;10.128;2023-04-03T08:52:55;4.93;;;3.10;;
6378;SDS011;3222;48.858;10.128;2023-04-03T08:55:27;5.10;;;3.07;;
6378;SDS011;3222;48.858;10.128;2023-04-03T08:58:05;4.20;;;3.20;;
6378;SDS011;3222;48.858;10.128;2023-04-03T09:00:47;3.83;;;2.80;;
6378;SDS011;3222;48.858;10.128;2023-04-03T09:03:14;5.27;;;3.17;;
6378;SDS011;3222;48.858;10.128;2023-04-03T09:11:09;2.90;;;2.67;;
6378;SDS011;3222;48.858;10.128;2023-04-03T09:14:00;3.50;;;3.07;;
6378;SDS011;3222;48.858;10.128;2023-04-03T09:16:39;3.47;;;3.07;;
6378;SDS011;3222;48.858;10.128;2023-04-03T09:19:38;3.93;;;3.00;;
6378;SDS011;3222;48.858;10.128;2023-04-03T09:22:19;3.77;;;2.47;;
6378;SDS011;3222;48.858;10.128;2023-04-03T09:24:50;3.07;;;2.77;;
6378;SDS011;3222;48.858;10.128;2023-04-03T09:27:22;5.87;;;2.90;;
6378;SDS011;3222;48.858;10.128;2023-04-03T09:29:48;4.60;;;2.80;;
6378;SDS011;3222;48.858;10.128;2023-04-03T09:32:28;4.17;;;2.90;;
6378;SDS011;3222;48.858;10.128;2023-04-03T09:35:02;5.03;;;3.10;;
6378;SDS011;3222;48.858;10.128;2023-04-03T09:41:06;3.00;;;2.67;;
6378;SDS011;3222;48.858;10.128;2023-04-03T09:43:40;4.07;;;2.97;;
6378;SDS011;3222;48.858;10.128;2023-04-03T09:46:33;3.93;;;2.77;;
6378;SDS011;3222;48.858;10.128;2023-04-03T09:49:04;4.97;;;2.93;;
6378;SDS011;3222;48.858;10.128;2023-04-03T09:51:30;7.20;;;2.77;;
6378;SDS011;3222;48.858;10.128;2023-04-03T09:53:57;3.60;;;3.30;;
6378;SDS011;3222;48.858;10.128;2023-04-03T09:56:32;3.00;;;2.70;;
6378;SDS011;3222;48.858;10.128;2023-04-03T10:04:17;4.53;;;2.70;;
6378;SDS011;3222;48.858;10.128;2023-04-03T10:06:51;2.83;;;2.50;;
6378;SDS011;3222;48.858;10.128;2023-04-03T10:09:28;3.27;;;2.40;;
6378;SDS011;3222;48.858;10.128;2023-04-03T10:20:19;3.20;;;2.90;;
6378;SDS011;3222;48.858;10.128;2023-04-03T10:25:37;2.90;;;2.60;;
6378;SDS011;3222;48.858;10.128;2023-04-03T10:28:10;3.00;;;2.70;;
6378;SDS011;3222;48.858;10.128;2023-04-03T10:30:47;3.63;;;2.70;;
6378;SDS011;3222;48.858;10.128;2023-04-03T10:33:34;2.87;;;2.60;;
6378;SDS011;3222;48.858;10.128;2023-04-03T10:36:24;3.80;;;2.50;;
6378;SDS011;3222;48.858;10.128;2023-04-03T10:38:54;4.83;;;2.30;;
6378;SDS011;3222;48.858;10.128;2023-04-03T10:52:49;5.07;;;2.73;;
6378;SDS011;3222;48.858;10.128;2023-04-03T10:55:53;2.70;;;2.50;;
6378;SDS011;3222;48.858;10.128;2023-04-03T10:58:43;3.93;;;2.80;;
6378;SDS011;3222;48.858;10.128;2023-04-03T11:01:14;4.10;;;2.67;;
6378;SDS011;3222;48.858;10.128;2023-04-03T11:03:46;3.77;;;2.80;;
6378;SDS011;3222;48.858;10.128;2023-04-03T11:06:17;5.30;;;2.70;;
6378;SDS011;3222;48.858;10.128;2023-04-03T11:08:50;2.57;;;2.37;;
6378;SDS011;3222;48.858;10.128;2023-04-03T11:11:24;2.93;;;2.30;;
6378;SDS011;3222;48.858;10.128;2023-04-03T11:16:42;3.10;;;2.50;;
6378;SDS011;3222;48.858;10.128;2023-04-03T11:19:14;3.10;;;2.47;;
6378;SDS011;3222;48.858;10.128;2023-04-03T11:22:33;3.73;;;2.47;;
6378;SDS011;3222;48.858;10.128;2023-04-03T11:24:41;4.30;;;2.70;;
6378;SDS011;3222;48.858;10.128;2023-04-03T11:27:21;2.77;;;2.50;;
6378;SDS011;3222;48.858;10.128;2023-04-03T11:29:49;5.40;;;2.97;;
6378;SDS011;3222;48.858;10.128;2023-04-03T11:34:58;3.40;;;2.80;;
6378;SDS011;3222;48.858;10.128;2023-04-03T11:37:39;3.03;;;2.83;;
6378;SDS011;3222;48.858;10.128;2023-04-03T11:43:16;3.27;;;2.57;;
6378;SDS011;3222;48.858;10.128;2023-04-03T11:50:47;3.83;;;2.57;;
6378;SDS011;3222;48.858;10.128;2023-04-03T11:55:43;2.93;;;2.50;;
6378;SDS011;3222;48.858;10.128;2023-04-03T11:58:17;4.00;;;2.70;;
6378;SDS011;3222;48.858;10.128;2023-04-03T12:21:21;5.93;;;2.87;;
6378;SDS011;3222;48.858;10.128;2023-04-03T12:24:00;3.53;;;2.63;;
6378;SDS011;3222;48.858;10.128;2023-04-03T12:26:30;5.10;;;2.57;;
6378;SDS011;3222;48.858;10.128;2023-04-03T12:37:02;2.77;;;2.57;;
6378;SDS011;3222;48.858;10.128;2023-04-03T12:39:55;3.40;;;2.53;;
6378;SDS011;3222;48.858;10.128;2023-04-03T12:45:24;3.20;;;2.80;;
6378;SDS011;3222;48.858;10.128;2023-04-03T12:47:52;4.60;;;3.00;;
6378;SDS011;3222;48.858;10.128;2023-04-03T12:50:30;7.30;;;2.60;;
6378;SDS011;3222;48.858;10.128;2023-04-03T12:55:31;3.50;;;2.50;;
6378;SDS011;3222;48.858;10.128;2023-04-03T12:58:12;4.87;;;2.73;;
6378;SDS011;3222;48.858;10.128;2023-04-03T13:03:55;3.93;;;2.80;;
6378;SDS011;3222;48.858;10.128;2023-04-03T13:06:32;4.37;;;2.60;;
6378;SDS011;3222;48.858;10.128;2023-04-03T13:09:03;4.37;;;2.60;;
6378;SDS011;3222;48.858;10.128;2023-04-03T13:11:31;2.93;;;2.63;;
6378;SDS011;3222;48.858;10.128;2023-04-03T13:14:02;2.30;;;2.20;;
6378;SDS011;3222;48.858;10.128;2023-04-03T13:16:30;4.57;;;2.40;;
6378;SDS011;3222;48.858;10.128;2023-04-03T13:18:57;5.93;;;2.50;;
6378;SDS011;3222;48.858;10.128;2023-04-03T13:21:28;5.00;;;3.10;;
6378;SDS011;3222;48.858;10.128;2023-04-03T13:23:56;6.33;;;2.70;;
6378;SDS011;3222;48.858;10.128;2023-04-03T13:26:26;2.80;;;2.50;;
6378;SDS011;3222;48.858;10.128;2023-04-03T13:28:54;4.10;;;2.87;;
6378;SDS011;3222;48.858;10.128;2023-04-03T13:31:26;4.07;;;2.33;;
6378;SDS011;3222;48.858;10.128;2023-04-03T13:33:57;3.40;;;2.30;;
6378;SDS011;3222;48.858;10.128;2023-04-03T13:36:31;3.63;;;2.83;;
6378;SDS011;3222;48.858;10.128;2023-04-03T13:39:04;4.90;;;2.40;;
6378;SDS011;3222;48.858;10.128;2023-04-03T13:41:50;3.07;;;2.40;;
6378;SDS011;3222;48.858;10.128;2023-04-03T13:46:46;4.20;;;2.47;;
6378;SDS011;3222;48.858;10.128;2023-04-03T13:49:21;3.07;;;2.33;;
6378;SDS011;3222;48.858;10.128;2023-04-03T13:51:47;2.57;;;2.37;;
6378;SDS011;3222;48.858;10.128;2023-04-03T13:54:19;2.50;;;2.30;;
6378;SDS011;3222;48.858;10.128;2023-04-03T13:56:51;6.83;;;2.70;;
6378;SDS011;3222;48.858;10.128;2023-04-03T13:59:21;3.77;;;2.13;;
6378;SDS011;3222;48.858;10.128;2023-04-03T14:01:57;2.40;;;2.20;;
6378;SDS011;3222;48.858;10.128;2023-04-03T14:04:51;2.70;;;2.20;;
6378;SDS011;3222;48.858;10.128;2023-04-03T14:07:25;2.33;;;2.07;;
6378;SDS011;3222;48.858;10.128;2023-04-03T14:09:51;2.10;;;1.90;;
6378;SDS011;3222;48.858;10.128;2023-04-03T14:14:49;4.33;;;2.70;;
6378;SDS011;3222;48.858;10.128;2023-04-03T14:17:22;2.40;;;2.00;;
6378;SDS011;3222;48.858;10.128;2023-04-03T14:19:50;2.30;;;2.10;;
6378;SDS011;3222;48.858;10.128;2023-04-03T14:22:21;2.23;;;2.10;;
6378;SDS011;3222;48.858;10.128;2023-04-03T14:24:51;2.53;;;2.20;;
6378;SDS011;3222;48.858;10.128;2023-04-03T14:27:22;4.67;;;2.37;;
6378;SDS011;3222;48.858;10.128;2023-04-03T14:29:54;2.20;;;2.00;;
6378;SDS011;3222;48.858;10.128;2023-04-03T14:32:21;2.97;;;2.13;;
6378;SDS011;3222;48.858;10.128;2023-04-03T14:34:49;4.83;;;2.10;;
6378;SDS011;3222;48.858;10.128;2023-04-03T14:37:18;1.97;;;1.70;;
6378;SDS011;3222;48.858;10.128;2023-04-03T14:39:47;2.47;;;2.27;;
6378;SDS011;3222;48.858;10.128;2023-04-03T14:42:18;2.73;;;2.03;;
6378;SDS011;3222;48.858;10.128;2023-04-03T14:44:48;3.57;;;2.60;;
6378;SDS011;3222;48.858;10.128;2023-04-03T14:47:15;3.83;;;2.23;;
6378;SDS011;3222;48.858;10.128;2023-04-03T14:49:43;4.70;;;2.40;;
6378;SDS011;3222;48.858;10.128;2023-04-03T14:52:16;3.70;;;2.43;;
6378;SDS011;3222;48.858;10.128;2023-04-03T14:54:43;3.40;;;2.60;;
6378;SDS011;3222;48.858;10.128;2023-04-03T14:57:08;3.60;;;2.67;;
6378;SDS011;3222;48.858;10.128;2023-04-03T14:59:37;4.37;;;2.17;;
6378;SDS011;3222;48.858;10.128;2023-04-03T15:02:10;3.50;;;2.10;;
6378;SDS011;3222;48.858;10.128;2023-04-03T15:04:47;2.97;;;2.20;;
6378;SDS011;3222;48.858;10.128;2023-04-03T15:07:13;3.57;;;2.27;;
6378;SDS011;3222;48.858;10.128;2023-04-03T15:09:38;2.97;;;2.20;;
6378;SDS011;3222;48.858;10.128;2023-04-03T15:12:04;2.50;;;2.30;;
6378;SDS011;3222;48.858;10.128;2023-04-03T15:14:30;4.47;;;2.13;;
6378;SDS011;3222;48.858;10.128;2023-04-03T15:16:55;2.40;;;2.20;;
6378;SDS011;3222;48.858;10.128;2023-04-03T15:19:21;2.50;;;2.30;;
6378;SDS011;3222;48.858;10.128;2023-04-03T15:21:48;2.40;;;2.20;;
6378;SDS011;3222;48.858;10.128;2023-04-03T15:24:14;2.50;;;2.30;;
6378;SDS011;3222;48.858;10.128;2023-04-03T15:26:39;2.47;;;2.20;;
6378;SDS011;3222;48.858;10.128;2023-04-03T15:29:06;3.53;;;2.37;;
6378;SDS011;3222;48.858;10.128;2023-04-03T15:31:32;2.77;;;2.20;;
6378;SDS011;3222;48.858;10.128;2023-04-03T15:33:59;2.67;;;2.30;;
6378;SDS011;3222;48.858;10.128;2023-04-03T15:36:24;2.30;;;2.10;;
6378;SDS011;3222;48.858;10.128;2023-04-03T15:38:50;3.50;;;2.30;;
6378;SDS011;3222;48.858;10.128;2023-04-03T15:41:16;2.30;;;2.10;;
6378;SDS011;3222;48.858;10.128;2023-04-03T15:43:42;2.57;;;2.20;;
6378;SDS011;3222;48.858;10.128;2023-04-03T15:46:08;2.53;;;2.33;;
6378;SDS011;3222;48.858;10.128;2023-04-03T15:48:36;2.53;;;2.33;;
6378;SDS011;3222;48.858;10.128;2023-04-03T15:51:02;4.77;;;2.47;;
6378;SDS011;3222;48.858;10.128;2023-04-03T15:53:27;3.73;;;2.20;;
6378;SDS011;3222;48.858;10.128;2023-04-03T15:55:54;2.80;;;2.50;;
6378;SDS011;3222;48.858;10.128;2023-04-03T15:58:19;2.80;;;2.20;;
6378;SDS011;3222;48.858;10.128;2023-04-03T16:00:45;3.10;;;2.37;;
6378;SDS011;3222;48.858;10.128;2023-04-03T16:03:12;5.40;;;2.97;;
6378;SDS011;3222;48.858;10.128;2023-04-03T16:05:41;3.37;;;2.63;;
6378;SDS011;3222;48.858;10.128;2023-04-03T16:08:08;6.10;;;4.03;;
6378;SDS011;3222;48.858;10.128;2023-04-03T16:10:36;9.10;;;5.40;;
6378;SDS011;3222;48.858;10.128;2023-04-03T16:13:03;7.53;;;3.90;;
6378;SDS011;3222;48.858;10.128;2023-04-03T16:15:31;6.00;;;3.80;;
6378;SDS011;3222;48.858;10.128;2023-04-03T16:17:59;3.70;;;3.30;;
6378;SDS011;3222;48.858;10.128;2023-04-03T16:20:25;3.87;;;3.30;;
6378;SDS011;3222;48.858;10.128;2023-04-03T16:22:51;3.50;;;3.20;;
6378;SDS011;3222;48.858;10.128;2023-04-03T16:25:17;3.10;;;2.80;;
6378;SDS011;3222;48.858;10.128;2023-04-03T16:27:43;3.57;;;2.70;;
6378;SDS011;3222;48.858;10.128;2023-04-03T16:30:09;4.67;;;2.90;;
6378;SDS011;3222;48.858;10.128;2023-04-03T16:32:35;4.73;;;2.57;;
6378;SDS011;3222;48.858;10.128;2023-04-03T16:35:03;4.47;;;2.40;;
6378;SDS011;3222;48.858;10.128;2023-04-03T16:37:29;2.93;;;2.50;;
6378;SDS011;3222;48.858;10.128;2023-04-03T16:39:55;3.07;;;2.57;;
6378;SDS011;3222;48.858;10.128;2023-04-03T16:42:23;2.73;;;2.47;;
6378;SDS011;3222;48.858;10.128;2023-04-03T16:44:49;3.63;;;2.47;;
6378;SDS011;3222;48.858;10.128;2023-04-03T16:47:15;3.90;;;2.47;;
6378;SDS011;3222;48.858;10.128;2023-04-03T16:49:44;2.87;;;2.50;;
6378;SDS011;3222;48.858;10.128;2023-04-03T16:52:10;5.37;;;2.53;;
6378;SDS011;3222;48.858;10.128;2023-04-03T16:54:36;2.37;;;2.17;;
6378;SDS011;3222;48.858;10.128;2023-04-03T16:57:01;3.60;;;2.60;;
6378;SDS011;3222;48.858;10.128;2023-04-03T16:59:27;3.70;;;2.90;;